createdAt,value
2023-07-18T00:00:18.809Z,15.61
2023-07-18T00:02:46.994Z,15.54
2023-07-18T00:05:14.111Z,15.50
2023-07-18T00:07:42.057Z,15.48
2023-07-18T00:10:10.032Z,15.46
2023-07-18T00:12:37.712Z,15.44
2023-07-18T00:15:08.133Z,15.42
2023-07-18T00:17:35.469Z,15.40
2023-07-18T00:20:03.221Z,15.35
2023-07-18T00:22:29.734Z,15.30
2023-07-18T00:24:56.356Z,15.26
2023-07-18T00:27:22.942Z,15.21
2023-07-18T00:29:50.204Z,15.18
2023-07-18T00:32:16.982Z,15.14
2023-07-18T00:34:45.405Z,15.11
2023-07-18T00:37:12.790Z,15.08
2023-07-18T00:39:39.365Z,15.03
2023-07-18T00:42:06.214Z,15.01
2023-07-18T00:44:33.244Z,14.97
2023-07-18T00:46:59.812Z,14.96
2023-07-18T00:49:26.816Z,14.95
2023-07-18T00:51:53.743Z,14.94
2023-07-18T00:54:21.824Z,14.94
2023-07-18T00:56:48.705Z,14.94
2023-07-18T00:59:17.467Z,14.91
2023-07-18T01:01:44.702Z,14.91
2023-07-18T01:04:11.337Z,14.89
2023-07-18T01:06:38.184Z,14.87
2023-07-18T01:09:06.428Z,14.83
2023-07-18T01:14:26.093Z,14.76
2023-07-18T01:16:55.902Z,14.75
2023-07-18T01:19:23.155Z,14.72
2023-07-18T01:21:49.816Z,14.70
2023-07-18T01:24:16.335Z,14.68
2023-07-18T01:26:42.860Z,14.63
2023-07-18T01:29:09.778Z,14.60
2023-07-18T01:31:36.392Z,14.57
2023-07-18T01:34:02.915Z,14.54
2023-07-18T01:36:30.816Z,14.53
2023-07-18T01:38:57.603Z,14.51
2023-07-18T01:41:24.131Z,14.49
2023-07-18T01:43:50.604Z,14.47
2023-07-18T01:46:17.111Z,14.45
2023-07-18T01:48:43.591Z,14.42
2023-07-18T01:51:10.172Z,14.39
2023-07-18T01:53:36.735Z,14.40
2023-07-18T01:56:03.259Z,14.41
2023-07-18T01:58:29.776Z,14.38
2023-07-18T02:00:56.286Z,14.36
2023-07-18T02:03:22.789Z,14.33
2023-07-18T02:05:49.331Z,14.32
2023-07-18T02:08:15.807Z,14.32
2023-07-18T02:10:42.294Z,14.29
2023-07-18T02:13:09.457Z,14.27
2023-07-18T02:15:36.029Z,14.24
2023-07-18T02:18:02.552Z,14.20
2023-07-18T02:20:29.146Z,14.15
2023-07-18T02:22:57.420Z,14.13
2023-07-18T02:25:24.183Z,14.10
2023-07-18T02:27:50.742Z,14.07
2023-07-18T02:30:18.177Z,14.02
2023-07-18T02:32:45.612Z,13.98
2023-07-18T02:35:19.794Z,13.93
2023-07-18T02:37:47.164Z,13.91
2023-07-18T02:40:15.377Z,13.87
2023-07-18T02:42:41.878Z,13.84
2023-07-18T02:45:10.770Z,13.81
2023-07-18T02:47:38.569Z,13.78
2023-07-18T02:50:05.980Z,13.75
2023-07-18T02:52:32.819Z,13.73
2023-07-18T02:54:59.410Z,13.70
2023-07-18T02:57:25.987Z,13.67
2023-07-18T02:59:52.470Z,13.67
2023-07-18T03:02:18.998Z,13.67
2023-07-18T03:04:48.876Z,13.67
2023-07-18T03:07:18.827Z,13.65
2023-07-18T03:09:46.539Z,13.58
2023-07-18T03:12:13.484Z,13.60
2023-07-18T03:14:40.274Z,13.54
2023-07-18T03:17:07.141Z,13.53
2023-07-18T03:19:33.759Z,13.52
2023-07-18T03:22:00.282Z,13.53
2023-07-18T03:24:26.780Z,13.49
2023-07-18T03:26:53.834Z,13.50
2023-07-18T03:29:20.996Z,13.47
2023-07-18T03:31:47.634Z,13.46
2023-07-18T03:34:14.208Z,13.41
2023-07-18T03:36:40.967Z,13.40
2023-07-18T03:39:07.507Z,13.39
2023-07-18T03:41:33.998Z,13.37
2023-07-18T03:44:01.291Z,13.37
2023-07-18T03:46:27.822Z,13.37
2023-07-18T03:48:54.596Z,13.37
2023-07-18T03:51:21.859Z,13.34
2023-07-18T03:53:51.987Z,13.34
2023-07-18T03:56:18.902Z,13.34
2023-07-18T03:58:45.427Z,13.32
2023-07-18T04:01:12.024Z,13.30
2023-07-18T04:03:39.286Z,13.29
2023-07-18T04:06:07.670Z,13.30
2023-07-18T04:08:34.501Z,13.30
2023-07-18T04:11:01.335Z,13.30
2023-07-18T04:13:28.051Z,13.31
2023-07-18T04:15:55.888Z,13.34
2023-07-18T04:18:23.006Z,13.36
2023-07-18T04:20:50.481Z,13.37
2023-07-18T04:23:18.072Z,13.39
2023-07-18T04:25:57.278Z,13.42
2023-07-18T04:28:24.629Z,13.40
2023-07-18T04:30:51.148Z,13.41
2023-07-18T04:33:17.704Z,13.43
2023-07-18T04:35:46.094Z,13.45
2023-07-18T04:38:14.926Z,13.46
2023-07-18T04:40:42.379Z,13.47
2023-07-18T04:43:09.803Z,13.50
2023-07-18T04:45:46.374Z,13.52
2023-07-18T04:48:14.852Z,13.52
2023-07-18T04:50:45.999Z,13.55
2023-07-18T04:53:12.950Z,13.55
2023-07-18T04:55:40.129Z,13.59
2023-07-18T04:58:08.607Z,13.60
2023-07-18T05:00:35.968Z,13.64
2023-07-18T05:03:02.561Z,13.68
2023-07-18T05:05:30.274Z,13.71
2023-07-18T05:07:59.603Z,13.79
2023-07-18T05:10:26.687Z,13.86
2023-07-18T05:12:54.449Z,13.94
2023-07-18T05:15:21.272Z,14.03
2023-07-18T05:17:48.544Z,14.12
2023-07-18T05:20:16.082Z,14.22
2023-07-18T05:22:45.078Z,14.32
2023-07-18T05:25:14.136Z,14.42
2023-07-18T05:27:41.886Z,14.55
2023-07-18T05:30:17.633Z,14.71
2023-07-18T05:32:46.020Z,14.88
2023-07-18T05:35:15.379Z,15.03
2023-07-18T05:37:43.372Z,15.24
2023-07-18T05:40:11.230Z,15.42
2023-07-18T05:42:42.761Z,15.61
2023-07-18T05:45:10.370Z,15.78
2023-07-18T05:47:38.345Z,15.92
2023-07-18T05:50:07.713Z,16.10
2023-07-18T05:52:34.895Z,16.24
2023-07-18T05:55:01.464Z,16.36
2023-07-18T05:57:28.045Z,16.50
2023-07-18T05:59:54.519Z,16.58
2023-07-18T06:02:22.450Z,16.74
2023-07-18T06:04:49.083Z,16.83
2023-07-18T06:07:16.804Z,16.96
2023-07-18T06:09:43.684Z,17.10
2023-07-18T06:12:10.565Z,17.20
2023-07-18T06:14:37.091Z,17.24
2023-07-18T06:17:04.532Z,17.26
2023-07-18T06:19:31.168Z,17.24
2023-07-18T06:21:58.316Z,17.27
2023-07-18T06:24:25.615Z,17.33
2023-07-18T06:26:52.608Z,17.35
2023-07-18T06:29:20.800Z,17.36
2023-07-18T06:31:50.596Z,17.37
2023-07-18T06:34:20.469Z,17.39
2023-07-18T06:36:47.520Z,17.35
2023-07-18T06:39:15.210Z,17.42
2023-07-18T06:41:42.320Z,17.49
2023-07-18T06:44:10.213Z,17.61
2023-07-18T06:46:37.386Z,17.67
2023-07-18T06:49:04.362Z,17.77
2023-07-18T06:51:30.969Z,17.87
2023-07-18T06:53:57.592Z,17.95
2023-07-18T06:56:24.544Z,18.00
2023-07-18T06:58:51.148Z,18.08
2023-07-18T07:01:17.893Z,18.18
2023-07-18T07:03:44.787Z,18.28
2023-07-18T07:06:12.796Z,18.39
2023-07-18T07:08:39.399Z,18.47
2023-07-18T07:11:07.391Z,18.58
2023-07-18T07:13:35.730Z,18.69
2023-07-18T07:16:04.420Z,18.79
2023-07-18T07:18:31.806Z,18.85
2023-07-18T07:20:58.521Z,18.90
2023-07-18T07:23:25.112Z,19.04
2023-07-18T07:25:51.925Z,19.19
2023-07-18T07:28:18.416Z,19.33
2023-07-18T07:30:44.998Z,19.47
2023-07-18T07:33:12.030Z,19.57
2023-07-18T07:35:38.794Z,19.62
2023-07-18T07:38:06.961Z,19.71
2023-07-18T07:40:33.652Z,19.86
2023-07-18T07:43:00.155Z,20.01
2023-07-18T07:45:26.779Z,20.15
2023-07-18T07:47:53.647Z,20.31
2023-07-18T07:50:20.198Z,20.46
2023-07-18T07:52:46.830Z,20.55
2023-07-18T07:55:14.953Z,20.59
2023-07-18T07:57:42.481Z,20.69
2023-07-18T08:00:09.584Z,20.69
2023-07-18T08:02:36.151Z,20.79
2023-07-18T08:05:02.908Z,20.89
2023-07-18T08:07:30.108Z,21.03
2023-07-18T08:09:56.850Z,21.14
2023-07-18T08:12:23.487Z,21.21
2023-07-18T08:14:50.276Z,21.34
2023-07-18T08:17:18.074Z,21.39
2023-07-18T08:19:44.938Z,21.44
2023-07-18T08:22:11.494Z,21.43
2023-07-18T08:24:38.102Z,21.58
2023-07-18T08:27:04.959Z,21.79
2023-07-18T08:29:31.579Z,21.96
2023-07-18T08:31:59.521Z,22.07
2023-07-18T08:34:26.510Z,22.10
2023-07-18T08:36:53.099Z,22.13
2023-07-18T08:39:19.945Z,22.14
2023-07-18T08:41:50.147Z,22.19
2023-07-18T08:44:17.780Z,22.27
2023-07-18T08:46:48.837Z,22.32
2023-07-18T08:49:18.339Z,22.41
2023-07-18T08:51:46.222Z,22.44
2023-07-18T08:54:14.325Z,22.51
2023-07-18T08:56:43.926Z,22.58
2023-07-18T08:59:11.494Z,22.67
2023-07-18T09:01:49.143Z,22.75
2023-07-18T09:04:16.768Z,22.64
2023-07-18T09:06:51.026Z,22.72
2023-07-18T09:09:19.145Z,22.75
2023-07-18T09:12:06.291Z,22.95
2023-07-18T09:14:34.902Z,23.14
2023-07-18T09:17:05.161Z,23.31
2023-07-18T09:19:36.188Z,23.51
2023-07-18T09:22:02.794Z,23.64
2023-07-18T09:24:32.619Z,23.82
2023-07-18T09:26:59.197Z,23.98
2023-07-18T09:29:28.653Z,24.20
2023-07-18T09:31:55.491Z,24.41
2023-07-18T09:34:22.341Z,24.50
2023-07-18T09:37:04.366Z,24.64
2023-07-18T09:39:30.882Z,24.76
2023-07-18T09:41:57.985Z,24.89
2023-07-18T09:44:32.938Z,25.03
2023-07-18T09:47:00.808Z,25.09
2023-07-18T09:49:33.081Z,25.16
2023-07-18T09:52:04.680Z,25.22
2023-07-18T09:54:32.258Z,25.26
2023-07-18T09:57:12.174Z,25.32
2023-07-18T09:59:40.890Z,25.47
2023-07-18T10:02:10.474Z,25.63
2023-07-18T10:04:38.089Z,25.77
2023-07-18T10:07:05.344Z,25.89
2023-07-18T10:09:33.671Z,26.06
2023-07-18T10:12:00.174Z,26.22
2023-07-18T10:14:57.709Z,26.00
2023-07-18T10:17:39.966Z,25.87
2023-07-18T10:20:22.814Z,25.88
2023-07-18T10:22:55.758Z,25.84
2023-07-18T10:25:23.150Z,25.55
2023-07-18T10:27:50.536Z,25.39
2023-07-18T10:30:19.730Z,25.11
2023-07-18T10:32:54.191Z,24.93
2023-07-18T10:35:23.130Z,24.79
2023-07-18T10:37:55.222Z,24.72
2023-07-18T10:40:49.950Z,24.66
2023-07-18T10:43:21.453Z,24.70
2023-07-18T10:45:48.254Z,24.76
2023-07-18T10:48:19.936Z,24.81
2023-07-18T10:50:48.458Z,24.94
2023-07-18T10:53:19.662Z,25.04
2023-07-18T10:55:47.380Z,25.13
2023-07-18T10:58:18.887Z,25.22
2023-07-18T11:00:46.604Z,25.34
2023-07-18T11:03:24.161Z,25.45
2023-07-18T11:05:51.944Z,25.65
2023-07-18T11:08:28.859Z,25.94
2023-07-18T11:11:00.387Z,26.12
2023-07-18T11:13:31.802Z,26.32
2023-07-18T11:16:02.872Z,26.52
2023-07-18T11:18:35.021Z,26.79
2023-07-18T11:21:06.010Z,26.96
2023-07-18T11:23:34.178Z,27.21
2023-07-18T11:26:00.980Z,27.54
2023-07-18T11:28:34.679Z,27.88
2023-07-18T11:31:02.417Z,28.03
2023-07-18T11:33:30.410Z,28.02
2023-07-18T11:35:57.714Z,27.80
2023-07-18T11:38:29.388Z,27.65
2023-07-18T11:40:56.147Z,27.66
2023-07-18T11:43:22.765Z,27.90
2023-07-18T11:45:56.124Z,28.11
2023-07-18T11:48:22.842Z,28.22
2023-07-18T11:50:49.465Z,28.27
2023-07-18T11:53:26.481Z,28.54
2023-07-18T11:55:55.848Z,28.94
2023-07-18T11:58:23.211Z,29.20
2023-07-18T12:00:49.724Z,28.91
2023-07-18T12:03:16.317Z,28.89
2023-07-18T12:05:42.974Z,29.02
2023-07-18T12:08:09.774Z,29.25
2023-07-18T12:10:36.413Z,29.48
2023-07-18T12:13:02.945Z,29.78
2023-07-18T12:15:29.600Z,30.15
2023-07-18T12:17:57.623Z,30.43
2023-07-18T12:20:24.206Z,30.65
2023-07-18T12:22:50.775Z,30.68
2023-07-18T12:25:18.203Z,30.83
2023-07-18T12:27:44.766Z,30.93
2023-07-18T12:30:13.305Z,31.12
2023-07-18T12:32:40.044Z,30.94
2023-07-18T12:35:07.033Z,31.03
2023-07-18T12:37:33.539Z,31.10
2023-07-18T12:40:00.265Z,31.45
2023-07-18T12:42:26.821Z,31.09
2023-07-18T12:44:53.353Z,30.83
2023-07-18T12:47:19.869Z,30.86
2023-07-18T12:52:16.135Z,31.09
2023-07-18T12:54:42.678Z,31.11
2023-07-18T12:57:09.365Z,31.15
2023-07-18T12:59:35.962Z,31.38
2023-07-18T13:02:02.709Z,31.54
2023-07-18T13:04:30.194Z,31.35
2023-07-18T13:06:57.159Z,31.35
2023-07-18T13:09:23.737Z,31.65
2023-07-18T13:11:50.827Z,31.90
2023-07-18T13:14:20.416Z,31.99
2023-07-18T13:16:47.184Z,32.30
2023-07-18T13:19:13.756Z,32.52
2023-07-18T13:21:40.456Z,32.77
2023-07-18T13:24:07.273Z,32.80
2023-07-18T13:26:34.026Z,32.27
2023-07-18T13:29:01.180Z,32.30
2023-07-18T13:31:27.876Z,32.28
2023-07-18T13:33:55.151Z,32.34
2023-07-18T13:36:22.274Z,32.02
2023-07-18T13:38:49.068Z,31.55
2023-07-18T13:41:15.940Z,31.23
2023-07-18T13:43:45.344Z,30.55
2023-07-18T13:46:16.934Z,30.49
2023-07-18T13:48:43.832Z,30.32
2023-07-18T13:51:10.571Z,30.33
2023-07-18T13:53:37.073Z,30.39
2023-07-18T13:56:03.764Z,30.48
2023-07-18T13:58:30.316Z,30.70
2023-07-18T14:00:57.987Z,30.62
2023-07-18T14:03:35.371Z,31.00
2023-07-18T14:06:04.136Z,31.44
2023-07-18T14:08:31.293Z,31.79
2023-07-18T14:10:57.921Z,32.24
2023-07-18T14:13:24.579Z,32.60
2023-07-18T14:15:51.860Z,32.93
2023-07-18T14:18:18.679Z,33.07
2023-07-18T14:20:45.904Z,33.35
2023-07-18T14:23:12.633Z,33.48
2023-07-18T14:25:39.237Z,33.59
2023-07-18T14:28:05.710Z,33.83
2023-07-18T14:30:32.263Z,34.04
2023-07-18T14:32:58.805Z,34.26
2023-07-18T14:35:25.436Z,34.37
2023-07-18T14:37:52.125Z,34.09
2023-07-18T14:40:18.713Z,34.30
2023-07-18T14:42:45.754Z,34.37
2023-07-18T14:45:12.473Z,34.45
2023-07-18T14:47:39.087Z,34.53
2023-07-18T14:50:06.245Z,34.50
2023-07-18T14:52:32.881Z,34.50
2023-07-18T14:55:00.486Z,34.56
2023-07-18T14:57:27.394Z,34.91
2023-07-18T14:59:54.872Z,35.11
2023-07-18T15:02:22.101Z,35.26
2023-07-18T15:04:49.034Z,35.40
2023-07-18T15:07:15.870Z,35.59
2023-07-18T15:09:42.403Z,35.84
2023-07-18T15:12:09.317Z,35.83
2023-07-18T15:14:36.227Z,35.89
2023-07-18T15:17:02.833Z,35.95
2023-07-18T15:19:29.343Z,35.93
2023-07-18T15:21:56.360Z,35.86
2023-07-18T15:24:22.861Z,35.84
2023-07-18T15:26:49.446Z,35.96
2023-07-18T15:29:15.993Z,35.80
2023-07-18T15:31:42.706Z,35.82
2023-07-18T15:34:10.096Z,35.85
2023-07-18T15:36:36.664Z,35.77
2023-07-18T15:39:03.408Z,35.59
2023-07-18T15:41:29.977Z,35.47
2023-07-18T15:43:57.588Z,35.12
2023-07-18T15:46:24.850Z,35.04
2023-07-18T15:48:51.639Z,34.99
2023-07-18T15:51:18.261Z,35.14
2023-07-18T15:53:44.831Z,35.22
2023-07-18T15:56:15.430Z,35.26
2023-07-18T15:58:42.576Z,35.36
2023-07-18T16:01:09.295Z,35.36
2023-07-18T16:03:36.181Z,35.23
2023-07-18T16:06:03.475Z,35.13
2023-07-18T16:08:30.346Z,35.30
2023-07-18T16:10:57.017Z,35.44
2023-07-18T16:13:23.648Z,35.51
2023-07-18T16:15:50.249Z,35.64
2023-07-18T16:18:16.778Z,35.51
2023-07-18T16:20:43.534Z,35.58
2023-07-18T16:23:10.432Z,35.65
2023-07-18T16:25:37.400Z,35.78
2023-07-18T16:28:04.880Z,35.98
2023-07-18T16:30:31.639Z,36.01
2023-07-18T16:32:58.208Z,36.08
2023-07-18T16:35:24.933Z,36.10
2023-07-18T16:37:51.449Z,36.05
2023-07-18T16:40:17.979Z,35.70
2023-07-18T16:42:44.444Z,35.40
2023-07-18T16:45:11.120Z,34.98
2023-07-18T16:47:37.691Z,34.68
2023-07-18T16:50:05.975Z,34.31
2023-07-18T16:52:32.506Z,34.05
2023-07-18T16:54:59.040Z,33.74
2023-07-18T16:57:25.550Z,33.31
2023-07-18T16:59:52.200Z,33.03
2023-07-18T17:02:18.675Z,32.83
2023-07-18T17:04:45.225Z,32.68
2023-07-18T17:07:11.784Z,32.36
2023-07-18T17:09:38.320Z,32.12
2023-07-18T17:12:05.262Z,31.97
2023-07-18T17:14:32.058Z,31.76
2023-07-18T17:16:58.569Z,31.61
2023-07-18T17:19:25.106Z,31.49
2023-07-18T17:21:51.581Z,31.26
2023-07-18T17:24:18.133Z,31.13
2023-07-18T17:26:44.736Z,31.00
2023-07-18T17:29:11.295Z,30.92
2023-07-18T17:31:37.794Z,30.79
2023-07-18T17:34:05.523Z,30.75
2023-07-18T17:36:32.133Z,30.70
2023-07-18T17:38:58.608Z,30.61
2023-07-18T17:41:25.191Z,30.45
2023-07-18T17:43:51.721Z,30.24
2023-07-18T17:46:18.332Z,30.06
2023-07-18T17:48:45.491Z,29.94
2023-07-18T17:51:12.363Z,29.88
2023-07-18T17:53:39.661Z,29.82
2023-07-18T17:56:06.449Z,29.77
2023-07-18T17:58:32.944Z,29.69
2023-07-18T18:00:59.471Z,29.66
2023-07-18T18:03:26.054Z,29.57
2023-07-18T18:05:53.107Z,29.49
2023-07-18T18:08:19.698Z,29.37
2023-07-18T18:10:47.230Z,29.30
2023-07-18T18:13:14.957Z,29.20
2023-07-18T18:15:56.347Z,29.15
2023-07-18T18:18:29.817Z,29.07
2023-07-18T18:21:01.039Z,29.07
2023-07-18T18:23:38.523Z,29.05
2023-07-18T18:26:07.545Z,29.01
2023-07-18T18:28:34.171Z,28.92
2023-07-18T18:31:01.058Z,28.85
2023-07-18T18:33:27.766Z,28.76
2023-07-18T18:35:55.575Z,28.67
2023-07-18T18:38:22.331Z,28.58
2023-07-18T18:40:49.170Z,28.46
2023-07-18T18:43:15.759Z,28.35
2023-07-18T18:45:42.389Z,28.25
2023-07-18T18:48:11.011Z,28.14
2023-07-18T18:50:37.993Z,28.00
2023-07-18T18:53:04.464Z,27.87
2023-07-18T18:55:33.574Z,27.76
2023-07-18T18:58:00.814Z,27.67
2023-07-18T19:00:27.461Z,27.63
2023-07-18T19:02:54.331Z,27.61
2023-07-18T19:05:21.332Z,27.54
2023-07-18T19:07:47.978Z,27.40
2023-07-18T19:10:14.682Z,27.24
2023-07-18T19:12:41.464Z,27.05
2023-07-18T19:15:08.379Z,26.85
2023-07-18T19:17:35.132Z,26.68
2023-07-18T19:20:01.959Z,26.51
2023-07-18T19:22:28.686Z,26.34
2023-07-18T19:24:55.290Z,26.19
2023-07-18T19:27:21.885Z,26.01
2023-07-18T19:29:48.671Z,25.79
2023-07-18T19:32:15.239Z,25.58
2023-07-18T19:34:44.880Z,25.42
2023-07-18T19:37:11.421Z,25.25
2023-07-18T19:39:38.354Z,25.12
2023-07-18T19:42:05.647Z,24.95
2023-07-18T19:44:32.644Z,24.81
2023-07-18T19:46:59.302Z,24.64
2023-07-18T19:49:26.280Z,24.50
2023-07-18T19:51:54.022Z,24.40
2023-07-18T19:54:20.691Z,24.26
2023-07-18T19:56:47.714Z,24.15
2023-07-18T19:59:14.606Z,24.04
2023-07-18T20:01:41.407Z,23.91
2023-07-18T20:04:08.082Z,23.76
2023-07-18T20:06:34.690Z,23.67
2023-07-18T20:09:01.901Z,23.57
2023-07-18T20:11:28.767Z,23.48
2023-07-18T20:13:55.481Z,23.38
2023-07-18T20:16:22.447Z,23.31
2023-07-18T20:18:52.580Z,23.20
2023-07-18T20:21:22.543Z,23.09
2023-07-18T20:23:49.375Z,23.02
2023-07-18T20:26:16.162Z,22.92
2023-07-18T20:28:42.639Z,22.80
2023-07-18T20:31:09.177Z,22.70
2023-07-18T20:33:35.742Z,22.60
2023-07-18T20:36:02.528Z,22.46
2023-07-18T20:38:29.010Z,22.41
2023-07-18T20:40:55.611Z,22.36
2023-07-18T20:43:24.884Z,22.27
2023-07-18T20:45:59.773Z,22.20
2023-07-18T20:48:30.808Z,22.11
2023-07-18T20:50:58.688Z,22.06
2023-07-18T20:53:25.925Z,22.02
2023-07-18T20:55:52.473Z,21.96
2023-07-18T20:58:18.965Z,21.90
2023-07-18T21:00:45.539Z,21.82
2023-07-18T21:03:12.453Z,21.76
2023-07-18T21:05:39.435Z,21.73
2023-07-18T21:08:06.879Z,21.65
2023-07-18T21:10:34.471Z,21.58
2023-07-18T21:13:01.176Z,21.47
2023-07-18T21:15:27.760Z,21.37
2023-07-18T21:17:54.396Z,21.32
2023-07-18T21:20:21.017Z,21.27
2023-07-18T21:22:47.597Z,21.25
2023-07-18T21:25:14.777Z,21.22
2023-07-18T21:27:41.314Z,21.17
2023-07-18T21:30:08.792Z,21.10
2023-07-18T21:32:36.102Z,21.04
2023-07-18T21:35:03.737Z,21.00
2023-07-18T21:37:30.419Z,20.94
2023-07-18T21:39:56.996Z,20.84
2023-07-18T21:42:23.624Z,20.76
2023-07-18T21:44:50.252Z,20.67
2023-07-18T21:47:16.791Z,20.57
2023-07-18T21:49:43.324Z,20.50
2023-07-18T21:52:09.792Z,20.42
2023-07-18T21:54:36.262Z,20.31
2023-07-18T21:57:02.929Z,20.22
2023-07-18T21:59:29.571Z,20.17
2023-07-18T22:01:56.099Z,20.11
2023-07-18T22:04:23.259Z,20.09
2023-07-18T22:06:49.830Z,20.04
2023-07-18T22:09:16.411Z,20.01
2023-07-18T22:11:42.870Z,19.96
2023-07-18T22:14:09.411Z,19.93
2023-07-18T22:16:35.931Z,19.90
2023-07-18T22:19:02.705Z,19.85
2023-07-18T22:21:29.191Z,19.81
2023-07-18T22:23:56.083Z,19.75
2023-07-18T22:26:22.638Z,19.70
2023-07-18T22:28:49.152Z,19.66
2023-07-18T22:31:15.849Z,19.60
2023-07-18T22:33:42.574Z,19.54
2023-07-18T22:36:09.306Z,19.50
2023-07-18T22:38:35.807Z,19.47
2023-07-18T22:41:03.726Z,19.38
2023-07-18T22:43:30.561Z,19.35
2023-07-18T22:45:57.102Z,19.32
2023-07-18T22:48:23.639Z,19.28
2023-07-18T22:50:53.323Z,19.23
2023-07-18T22:53:20.544Z,19.20
2023-07-18T22:55:48.542Z,19.15
2023-07-18T22:58:15.859Z,19.08
2023-07-18T23:00:43.259Z,19.05
2023-07-18T23:03:10.027Z,19.03
2023-07-18T23:05:36.838Z,19.02
2023-07-18T23:08:04.957Z,19.00
2023-07-18T23:10:31.604Z,18.94
2023-07-18T23:12:59.183Z,18.91
2023-07-18T23:15:25.816Z,18.88
2023-07-18T23:17:52.306Z,18.88
2023-07-18T23:20:18.841Z,18.85
2023-07-18T23:22:45.436Z,18.84
2023-07-18T23:25:11.964Z,18.82
2023-07-18T23:27:38.476Z,18.79
2023-07-18T23:30:06.209Z,18.74
2023-07-18T23:32:32.737Z,18.71
2023-07-18T23:34:59.289Z,18.64
2023-07-18T23:37:25.822Z,18.61
2023-07-18T23:39:55.556Z,18.57
2023-07-18T23:42:22.063Z,18.49
2023-07-18T23:44:48.586Z,18.45
2023-07-18T23:47:15.076Z,18.43
2023-07-18T23:49:41.637Z,18.36
2023-07-18T23:52:08.243Z,18.36
2023-07-18T23:54:34.724Z,18.32
2023-07-18T23:57:01.234Z,18.30
2023-07-18T23:59:27.802Z,18.27
